Aviation Digital Data Service (ADDS)

Output produced by METARs form (0958 UTC 19 January 2019)
found at http://www.aviationweather.gov/metar/data/
 
LQBK 190930Z 08004KT 9999 BKN040 02/M03 Q1020 NOSIG
TAF LQBK 190500Z 1906/2006 05005KT 6000 BKN030 TX02/1913Z TNM01/2006Z 
     TEMPO 1906/2006 2000 -SN BR BKN005 OVC033 
     PROB40 
     TEMPO 1911/2003 1500 SNRA BR BKN007 BKN030
       
LQMO 190900Z 12004KT 090V160 8000 RA FEW019 SCT042 BKN054 06/04 Q1014
TAF LQMO 190500Z 1906/2006 12005KT 6000 FEW010 SCT040 BKN055 TX08/1913Z
TN05/2006Z 
     TEMPO 1909/2006 4000 -RA BR 
     PROB40 
     TEMPO 1923/2003 3000 SHRA FEW030TCU BKN040
       
LQSA 190930Z 30002KT 3500 BR SCT004 OVC015 01/01 Q1017 NOSIG
TAF COR LQSA 190502Z 1906/2006 VRB02KT 5000 -SN BR SCT004 OVC020 TX03/1913Z
TNM02/1921Z 
     PROB30 1906/1908 1000 
     TEMPO 1910/2006 2000 RASN BKN010 BKN025
       
LQTZ 190930Z VRB02KT 2000 SN BR BKN010 OVC020 00/00 Q1019
TAF LQTZ 190500Z 1906/2006 09005KT 4000 BR SCT017 BKN033 TX02/1913Z TNM00/2006Z 
     TEMPO 1906/1910 0500 FZFG BKN002 BKN030 
     TEMPO 1913/1918 2000 -RASN BR BKN010 BKN025 
     TEMPO 1923/2006 0500 FZFG RASN BKN005 BKN025